sensor_id;sensor_type;location;lat;lon;timestamp;P1;durP1;ratioP1;P2;durP2;ratioP2
18320;SDS011;54904;54.350;18.664;2023-03-13T00:00:04;14.53;;;6.93;;
18320;SDS011;54904;54.350;18.664;2023-03-13T00:02:33;17.20;;;6.97;;
18320;SDS011;54904;54.350;18.664;2023-03-13T00:05:00;19.57;;;7.53;;
18320;SDS011;54904;54.350;18.664;2023-03-13T00:07:28;25.57;;;9.43;;
18320;SDS011;54904;54.350;18.664;2023-03-13T00:09:55;25.47;;;10.17;;
18320;SDS011;54904;54.350;18.664;2023-03-13T00:12:22;30.23;;;10.00;;
18320;SDS011;54904;54.350;18.664;2023-03-13T00:14:49;29.67;;;10.17;;
18320;SDS011;54904;54.350;18.664;2023-03-13T00:17:17;21.10;;;9.07;;
18320;SDS011;54904;54.350;18.664;2023-03-13T00:19:48;26.63;;;10.60;;
18320;SDS011;54904;54.350;18.664;2023-03-13T00:22:15;28.40;;;10.70;;
18320;SDS011;54904;54.350;18.664;2023-03-13T00:24:44;20.73;;;9.10;;
18320;SDS011;54904;54.350;18.664;2023-03-13T00:27:11;15.17;;;7.47;;
18320;SDS011;54904;54.350;18.664;2023-03-13T00:29:38;17.43;;;7.63;;
18320;SDS011;54904;54.350;18.664;2023-03-13T00:32:06;16.80;;;7.43;;
18320;SDS011;54904;54.350;18.664;2023-03-13T00:34:34;15.67;;;6.27;;
18320;SDS011;54904;54.350;18.664;2023-03-13T00:37:04;13.17;;;6.03;;
18320;SDS011;54904;54.350;18.664;2023-03-13T00:39:31;14.33;;;6.23;;
18320;SDS011;54904;54.350;18.664;2023-03-13T00:42:00;13.57;;;5.73;;
18320;SDS011;54904;54.350;18.664;2023-03-13T00:44:28;14.00;;;6.00;;
18320;SDS011;54904;54.350;18.664;2023-03-13T00:46:55;17.03;;;6.60;;
18320;SDS011;54904;54.350;18.664;2023-03-13T00:49:22;16.53;;;6.67;;
18320;SDS011;54904;54.350;18.664;2023-03-13T00:51:51;11.30;;;5.50;;
18320;SDS011;54904;54.350;18.664;2023-03-13T00:54:18;11.53;;;5.70;;
18320;SDS011;54904;54.350;18.664;2023-03-13T00:56:46;16.30;;;6.03;;
18320;SDS011;54904;54.350;18.664;2023-03-13T00:59:13;12.13;;;5.70;;
18320;SDS011;54904;54.350;18.664;2023-03-13T01:01:40;14.37;;;6.20;;
18320;SDS011;54904;54.350;18.664;2023-03-13T01:04:08;9.90;;;5.30;;
18320;SDS011;54904;54.350;18.664;2023-03-13T01:06:36;14.23;;;6.33;;
18320;SDS011;54904;54.350;18.664;2023-03-13T01:09:10;12.50;;;5.83;;
18320;SDS011;54904;54.350;18.664;2023-03-13T01:11:38;17.73;;;6.83;;
18320;SDS011;54904;54.350;18.664;2023-03-13T01:14:09;22.70;;;8.37;;
18320;SDS011;54904;54.350;18.664;2023-03-13T01:16:37;19.63;;;7.67;;
18320;SDS011;54904;54.350;18.664;2023-03-13T01:19:07;16.83;;;7.30;;
18320;SDS011;54904;54.350;18.664;2023-03-13T01:21:36;18.10;;;7.10;;
18320;SDS011;54904;54.350;18.664;2023-03-13T01:24:04;21.97;;;7.77;;
18320;SDS011;54904;54.350;18.664;2023-03-13T01:26:32;19.57;;;7.53;;
18320;SDS011;54904;54.350;18.664;2023-03-13T01:29:00;19.90;;;7.87;;
18320;SDS011;54904;54.350;18.664;2023-03-13T01:31:28;22.43;;;8.40;;
18320;SDS011;54904;54.350;18.664;2023-03-13T01:33:57;15.07;;;7.13;;
18320;SDS011;54904;54.350;18.664;2023-03-13T01:36:26;17.77;;;7.67;;
18320;SDS011;54904;54.350;18.664;2023-03-13T01:38:54;16.03;;;7.00;;
18320;SDS011;54904;54.350;18.664;2023-03-13T01:41:24;19.57;;;8.07;;
18320;SDS011;54904;54.350;18.664;2023-03-13T01:43:54;19.57;;;7.80;;
18320;SDS011;54904;54.350;18.664;2023-03-13T01:46:23;15.07;;;7.13;;
18320;SDS011;54904;54.350;18.664;2023-03-13T01:49:05;21.57;;;8.30;;
18320;SDS011;54904;54.350;18.664;2023-03-13T01:51:50;21.77;;;8.27;;
18320;SDS011;54904;54.350;18.664;2023-03-13T01:54:20;18.77;;;7.90;;
18320;SDS011;54904;54.350;18.664;2023-03-13T01:56:51;25.67;;;8.90;;
18320;SDS011;54904;54.350;18.664;2023-03-13T01:59:24;18.90;;;7.90;;
18320;SDS011;54904;54.350;18.664;2023-03-13T02:01:54;20.00;;;8.27;;
18320;SDS011;54904;54.350;18.664;2023-03-13T02:04:29;19.97;;;8.63;;
18320;SDS011;54904;54.350;18.664;2023-03-13T02:07:01;23.47;;;9.07;;
18320;SDS011;54904;54.350;18.664;2023-03-13T02:09:34;20.43;;;8.70;;
18320;SDS011;54904;54.350;18.664;2023-03-13T02:12:03;21.40;;;9.17;;
18320;SDS011;54904;54.350;18.664;2023-03-13T02:14:34;26.17;;;10.30;;
18320;SDS011;54904;54.350;18.664;2023-03-13T02:17:04;20.07;;;8.43;;
18320;SDS011;54904;54.350;18.664;2023-03-13T02:19:34;26.27;;;10.27;;
18320;SDS011;54904;54.350;18.664;2023-03-13T02:22:07;35.27;;;11.63;;
18320;SDS011;54904;54.350;18.664;2023-03-13T02:24:45;38.30;;;13.10;;
18320;SDS011;54904;54.350;18.664;2023-03-13T02:27:18;39.53;;;12.60;;
18320;SDS011;54904;54.350;18.664;2023-03-13T02:29:46;37.73;;;12.27;;
18320;SDS011;54904;54.350;18.664;2023-03-13T02:32:14;33.17;;;12.00;;
18320;SDS011;54904;54.350;18.664;2023-03-13T02:34:41;38.97;;;13.60;;
18320;SDS011;54904;54.350;18.664;2023-03-13T02:37:10;39.73;;;12.53;;
18320;SDS011;54904;54.350;18.664;2023-03-13T02:39:40;43.77;;;13.53;;
18320;SDS011;54904;54.350;18.664;2023-03-13T02:42:11;48.23;;;15.67;;
18320;SDS011;54904;54.350;18.664;2023-03-13T02:44:41;47.73;;;14.07;;
18320;SDS011;54904;54.350;18.664;2023-03-13T02:47:11;60.87;;;17.63;;
18320;SDS011;54904;54.350;18.664;2023-03-13T02:49:42;55.50;;;17.40;;
18320;SDS011;54904;54.350;18.664;2023-03-13T02:52:10;44.50;;;14.53;;
18320;SDS011;54904;54.350;18.664;2023-03-13T02:54:41;40.47;;;13.63;;
18320;SDS011;54904;54.350;18.664;2023-03-13T02:57:11;36.83;;;13.40;;
18320;SDS011;54904;54.350;18.664;2023-03-13T02:59:38;35.33;;;13.30;;
18320;SDS011;54904;54.350;18.664;2023-03-13T03:02:07;29.27;;;12.27;;
18320;SDS011;54904;54.350;18.664;2023-03-13T03:04:36;31.30;;;12.27;;
18320;SDS011;54904;54.350;18.664;2023-03-13T03:07:03;34.67;;;12.87;;
18320;SDS011;54904;54.350;18.664;2023-03-13T03:09:30;29.70;;;10.93;;
18320;SDS011;54904;54.350;18.664;2023-03-13T03:12:02;30.27;;;11.30;;
18320;SDS011;54904;54.350;18.664;2023-03-13T03:14:29;32.30;;;12.07;;
18320;SDS011;54904;54.350;18.664;2023-03-13T03:16:56;34.17;;;12.13;;
18320;SDS011;54904;54.350;18.664;2023-03-13T03:19:26;33.83;;;10.87;;
18320;SDS011;54904;54.350;18.664;2023-03-13T03:21:53;23.37;;;9.20;;
18320;SDS011;54904;54.350;18.664;2023-03-13T03:24:21;19.43;;;8.67;;
18320;SDS011;54904;54.350;18.664;2023-03-13T03:26:48;21.07;;;9.23;;
18320;SDS011;54904;54.350;18.664;2023-03-13T03:29:22;21.90;;;9.00;;
18320;SDS011;54904;54.350;18.664;2023-03-13T03:31:52;23.67;;;9.03;;
18320;SDS011;54904;54.350;18.664;2023-03-13T03:34:19;24.60;;;9.20;;
18320;SDS011;54904;54.350;18.664;2023-03-13T03:36:49;27.07;;;10.03;;
18320;SDS011;54904;54.350;18.664;2023-03-13T03:39:16;25.87;;;10.17;;
18320;SDS011;54904;54.350;18.664;2023-03-13T03:41:43;24.20;;;10.10;;
18320;SDS011;54904;54.350;18.664;2023-03-13T03:44:10;23.23;;;9.33;;
18320;SDS011;54904;54.350;18.664;2023-03-13T03:46:51;23.60;;;10.50;;
18320;SDS011;54904;54.350;18.664;2023-03-13T03:49:20;23.00;;;9.50;;
18320;SDS011;54904;54.350;18.664;2023-03-13T03:51:47;20.60;;;9.40;;
18320;SDS011;54904;54.350;18.664;2023-03-13T03:54:21;22.03;;;8.93;;
18320;SDS011;54904;54.350;18.664;2023-03-13T03:56:49;18.47;;;8.60;;
18320;SDS011;54904;54.350;18.664;2023-03-13T03:59:16;19.20;;;9.20;;
18320;SDS011;54904;54.350;18.664;2023-03-13T04:01:46;20.07;;;9.07;;
18320;SDS011;54904;54.350;18.664;2023-03-13T04:04:18;21.00;;;8.67;;
18320;SDS011;54904;54.350;18.664;2023-03-13T04:06:51;15.73;;;7.50;;
18320;SDS011;54904;54.350;18.664;2023-03-13T04:09:18;16.50;;;7.57;;
18320;SDS011;54904;54.350;18.664;2023-03-13T04:11:45;18.83;;;7.50;;
18320;SDS011;54904;54.350;18.664;2023-03-13T04:14:12;20.60;;;8.20;;
18320;SDS011;54904;54.350;18.664;2023-03-13T04:16:40;17.03;;;7.30;;
18320;SDS011;54904;54.350;18.664;2023-03-13T04:19:07;15.17;;;7.80;;
18320;SDS011;54904;54.350;18.664;2023-03-13T04:21:34;10.87;;;6.10;;
18320;SDS011;54904;54.350;18.664;2023-03-13T04:24:08;10.73;;;5.90;;
18320;SDS011;54904;54.350;18.664;2023-03-13T04:26:38;14.07;;;6.80;;
18320;SDS011;54904;54.350;18.664;2023-03-13T04:29:05;12.13;;;6.23;;
18320;SDS011;54904;54.350;18.664;2023-03-13T04:31:44;18.90;;;6.63;;
18320;SDS011;54904;54.350;18.664;2023-03-13T04:34:20;13.50;;;7.30;;
18320;SDS011;54904;54.350;18.664;2023-03-13T04:37:17;13.40;;;6.90;;
18320;SDS011;54904;54.350;18.664;2023-03-13T04:40:10;13.63;;;6.37;;
18320;SDS011;54904;54.350;18.664;2023-03-13T04:43:00;16.20;;;6.87;;
18320;SDS011;54904;54.350;18.664;2023-03-13T04:45:46;12.47;;;5.80;;
18320;SDS011;54904;54.350;18.664;2023-03-13T04:48:32;14.00;;;6.00;;
18320;SDS011;54904;54.350;18.664;2023-03-13T04:51:10;12.77;;;6.20;;
18320;SDS011;54904;54.350;18.664;2023-03-13T04:54:11;12.30;;;5.77;;
18320;SDS011;54904;54.350;18.664;2023-03-13T04:56:53;12.10;;;5.57;;
18320;SDS011;54904;54.350;18.664;2023-03-13T04:59:47;11.30;;;5.50;;
18320;SDS011;54904;54.350;18.664;2023-03-13T05:02:14;12.10;;;5.67;;
18320;SDS011;54904;54.350;18.664;2023-03-13T05:05:07;12.40;;;6.17;;
18320;SDS011;54904;54.350;18.664;2023-03-13T05:07:56;14.30;;;6.90;;
18320;SDS011;54904;54.350;18.664;2023-03-13T05:10:36;13.17;;;5.93;;
18320;SDS011;54904;54.350;18.664;2023-03-13T05:13:23;12.23;;;6.10;;
18320;SDS011;54904;54.350;18.664;2023-03-13T05:16:02;13.53;;;6.40;;
18320;SDS011;54904;54.350;18.664;2023-03-13T05:18:53;14.23;;;6.60;;
18320;SDS011;54904;54.350;18.664;2023-03-13T05:21:39;17.20;;;7.23;;
18320;SDS011;54904;54.350;18.664;2023-03-13T05:24:25;22.60;;;8.53;;
18320;SDS011;54904;54.350;18.664;2023-03-13T05:27:14;18.47;;;8.10;;
18320;SDS011;54904;54.350;18.664;2023-03-13T05:30:01;19.73;;;8.13;;
18320;SDS011;54904;54.350;18.664;2023-03-13T05:32:50;19.47;;;8.20;;
18320;SDS011;54904;54.350;18.664;2023-03-13T05:35:38;19.53;;;8.77;;
18320;SDS011;54904;54.350;18.664;2023-03-13T05:38:23;16.23;;;7.93;;
18320;SDS011;54904;54.350;18.664;2023-03-13T05:41:10;20.20;;;8.17;;
18320;SDS011;54904;54.350;18.664;2023-03-13T05:44:00;20.33;;;8.60;;
18320;SDS011;54904;54.350;18.664;2023-03-13T05:46:51;18.63;;;7.87;;
18320;SDS011;54904;54.350;18.664;2023-03-13T05:49:41;21.47;;;8.13;;
18320;SDS011;54904;54.350;18.664;2023-03-13T05:52:26;18.50;;;8.47;;
18320;SDS011;54904;54.350;18.664;2023-03-13T05:55:17;19.77;;;8.30;;
18320;SDS011;54904;54.350;18.664;2023-03-13T05:58:03;16.20;;;7.37;;
18320;SDS011;54904;54.350;18.664;2023-03-13T06:00:50;23.50;;;8.77;;
18320;SDS011;54904;54.350;18.664;2023-03-13T06:03:45;20.80;;;9.20;;
18320;SDS011;54904;54.350;18.664;2023-03-13T06:06:13;18.90;;;8.63;;
18320;SDS011;54904;54.350;18.664;2023-03-13T06:08:52;17.33;;;8.23;;
18320;SDS011;54904;54.350;18.664;2023-03-13T06:11:22;16.33;;;8.73;;
18320;SDS011;54904;54.350;18.664;2023-03-13T06:13:49;20.27;;;8.93;;
18320;SDS011;54904;54.350;18.664;2023-03-13T06:16:35;16.90;;;8.37;;
18320;SDS011;54904;54.350;18.664;2023-03-13T06:19:19;20.03;;;9.10;;
18320;SDS011;54904;54.350;18.664;2023-03-13T06:21:46;19.13;;;8.27;;
18320;SDS011;54904;54.350;18.664;2023-03-13T06:24:13;21.40;;;9.03;;
18320;SDS011;54904;54.350;18.664;2023-03-13T06:26:41;19.70;;;8.23;;
18320;SDS011;54904;54.350;18.664;2023-03-13T06:29:08;21.17;;;9.37;;
18320;SDS011;54904;54.350;18.664;2023-03-13T06:31:36;21.90;;;9.20;;
18320;SDS011;54904;54.350;18.664;2023-03-13T06:34:03;19.77;;;9.10;;
18320;SDS011;54904;54.350;18.664;2023-03-13T06:36:31;21.93;;;9.33;;
18320;SDS011;54904;54.350;18.664;2023-03-13T06:38:58;18.03;;;9.00;;
18320;SDS011;54904;54.350;18.664;2023-03-13T06:41:25;25.13;;;10.23;;
18320;SDS011;54904;54.350;18.664;2023-03-13T06:43:53;24.70;;;10.70;;
18320;SDS011;54904;54.350;18.664;2023-03-13T06:46:21;21.57;;;9.80;;
18320;SDS011;54904;54.350;18.664;2023-03-13T06:48:50;22.30;;;9.60;;
18320;SDS011;54904;54.350;18.664;2023-03-13T06:51:17;23.40;;;9.33;;
18320;SDS011;54904;54.350;18.664;2023-03-13T06:53:47;20.83;;;10.07;;
18320;SDS011;54904;54.350;18.664;2023-03-13T06:56:16;16.57;;;8.13;;
18320;SDS011;54904;54.350;18.664;2023-03-13T06:58:46;17.23;;;7.67;;
18320;SDS011;54904;54.350;18.664;2023-03-13T07:01:13;13.80;;;7.60;;
18320;SDS011;54904;54.350;18.664;2023-03-13T07:03:42;19.10;;;8.97;;
18320;SDS011;54904;54.350;18.664;2023-03-13T07:06:10;19.97;;;8.90;;
18320;SDS011;54904;54.350;18.664;2023-03-13T07:08:37;27.23;;;11.07;;
18320;SDS011;54904;54.350;18.664;2023-03-13T07:11:07;24.13;;;10.93;;
18320;SDS011;54904;54.350;18.664;2023-03-13T07:13:35;26.67;;;10.73;;
18320;SDS011;54904;54.350;18.664;2023-03-13T07:16:03;28.17;;;12.17;;
18320;SDS011;54904;54.350;18.664;2023-03-13T07:18:32;23.83;;;11.10;;
18320;SDS011;54904;54.350;18.664;2023-03-13T07:21:01;23.10;;;10.97;;
18320;SDS011;54904;54.350;18.664;2023-03-13T07:23:30;21.73;;;10.37;;
18320;SDS011;54904;54.350;18.664;2023-03-13T07:25:58;29.60;;;12.67;;
18320;SDS011;54904;54.350;18.664;2023-03-13T07:28:28;26.03;;;11.63;;
18320;SDS011;54904;54.350;18.664;2023-03-13T07:31:02;27.70;;;12.43;;
18320;SDS011;54904;54.350;18.664;2023-03-13T07:33:30;33.20;;;12.47;;
18320;SDS011;54904;54.350;18.664;2023-03-13T07:35:57;30.50;;;12.37;;
18320;SDS011;54904;54.350;18.664;2023-03-13T07:38:25;29.27;;;12.90;;
18320;SDS011;54904;54.350;18.664;2023-03-13T07:40:53;29.00;;;12.57;;
18320;SDS011;54904;54.350;18.664;2023-03-13T07:43:21;30.07;;;12.70;;
18320;SDS011;54904;54.350;18.664;2023-03-13T07:45:51;29.23;;;12.67;;
18320;SDS011;54904;54.350;18.664;2023-03-13T07:48:20;29.50;;;12.70;;
18320;SDS011;54904;54.350;18.664;2023-03-13T07:50:50;29.40;;;12.83;;
18320;SDS011;54904;54.350;18.664;2023-03-13T07:53:17;28.53;;;11.97;;
18320;SDS011;54904;54.350;18.664;2023-03-13T07:55:52;25.50;;;11.13;;
18320;SDS011;54904;54.350;18.664;2023-03-13T07:58:21;27.10;;;12.23;;
18320;SDS011;54904;54.350;18.664;2023-03-13T08:00:48;31.17;;;12.23;;
18320;SDS011;54904;54.350;18.664;2023-03-13T08:03:17;33.40;;;13.53;;
18320;SDS011;54904;54.350;18.664;2023-03-13T08:05:44;28.53;;;12.43;;
18320;SDS011;54904;54.350;18.664;2023-03-13T08:08:12;30.00;;;13.67;;
18320;SDS011;54904;54.350;18.664;2023-03-13T08:10:39;28.03;;;12.87;;
18320;SDS011;54904;54.350;18.664;2023-03-13T08:13:06;31.57;;;13.03;;
18320;SDS011;54904;54.350;18.664;2023-03-13T08:15:33;30.03;;;13.90;;
18320;SDS011;54904;54.350;18.664;2023-03-13T08:18:01;32.53;;;14.07;;
18320;SDS011;54904;54.350;18.664;2023-03-13T08:20:30;33.13;;;13.40;;
18320;SDS011;54904;54.350;18.664;2023-03-13T08:22:57;28.90;;;13.50;;
18320;SDS011;54904;54.350;18.664;2023-03-13T08:25:24;33.03;;;14.13;;
18320;SDS011;54904;54.350;18.664;2023-03-13T08:27:51;31.43;;;14.87;;
18320;SDS011;54904;54.350;18.664;2023-03-13T08:30:18;34.13;;;14.70;;
18320;SDS011;54904;54.350;18.664;2023-03-13T08:32:45;25.03;;;12.23;;
18320;SDS011;54904;54.350;18.664;2023-03-13T08:35:13;27.73;;;13.13;;
18320;SDS011;54904;54.350;18.664;2023-03-13T08:37:41;30.63;;;13.30;;
18320;SDS011;54904;54.350;18.664;2023-03-13T08:40:09;32.97;;;13.97;;
18320;SDS011;54904;54.350;18.664;2023-03-13T08:42:38;31.13;;;14.03;;
18320;SDS011;54904;54.350;18.664;2023-03-13T08:45:05;33.97;;;13.97;;
18320;SDS011;54904;54.350;18.664;2023-03-13T08:47:33;28.87;;;13.10;;
18320;SDS011;54904;54.350;18.664;2023-03-13T08:50:01;30.53;;;13.93;;
18320;SDS011;54904;54.350;18.664;2023-03-13T08:52:28;24.73;;;12.27;;
18320;SDS011;54904;54.350;18.664;2023-03-13T08:54:57;33.27;;;13.80;;
18320;SDS011;54904;54.350;18.664;2023-03-13T08:57:24;21.43;;;10.47;;
18320;SDS011;54904;54.350;18.664;2023-03-13T08:59:51;26.90;;;12.53;;
18320;SDS011;54904;54.350;18.664;2023-03-13T09:02:18;29.93;;;13.77;;
18320;SDS011;54904;54.350;18.664;2023-03-13T09:04:45;25.37;;;12.77;;
18320;SDS011;54904;54.350;18.664;2023-03-13T09:07:14;31.40;;;15.07;;
18320;SDS011;54904;54.350;18.664;2023-03-13T09:09:42;34.50;;;14.83;;
18320;SDS011;54904;54.350;18.664;2023-03-13T09:12:11;29.13;;;13.87;;
18320;SDS011;54904;54.350;18.664;2023-03-13T09:14:38;35.10;;;15.37;;
18320;SDS011;54904;54.350;18.664;2023-03-13T09:17:05;38.50;;;16.50;;
18320;SDS011;54904;54.350;18.664;2023-03-13T09:19:33;34.33;;;14.40;;
18320;SDS011;54904;54.350;18.664;2023-03-13T09:22:00;33.63;;;14.23;;
18320;SDS011;54904;54.350;18.664;2023-03-13T09:24:27;29.77;;;14.57;;
18320;SDS011;54904;54.350;18.664;2023-03-13T09:26:54;38.33;;;15.43;;
18320;SDS011;54904;54.350;18.664;2023-03-13T09:29:22;33.33;;;15.40;;
18320;SDS011;54904;54.350;18.664;2023-03-13T09:31:50;27.27;;;14.03;;
18320;SDS011;54904;54.350;18.664;2023-03-13T09:34:17;30.20;;;14.57;;
18320;SDS011;54904;54.350;18.664;2023-03-13T09:36:44;34.27;;;15.47;;
18320;SDS011;54904;54.350;18.664;2023-03-13T09:39:11;32.30;;;15.80;;
18320;SDS011;54904;54.350;18.664;2023-03-13T09:41:39;30.97;;;15.83;;
18320;SDS011;54904;54.350;18.664;2023-03-13T09:44:13;33.00;;;16.90;;
18320;SDS011;54904;54.350;18.664;2023-03-13T09:46:52;43.73;;;18.20;;
18320;SDS011;54904;54.350;18.664;2023-03-13T09:49:27;40.60;;;19.17;;
18320;SDS011;54904;54.350;18.664;2023-03-13T09:52:03;47.50;;;20.30;;
18320;SDS011;54904;54.350;18.664;2023-03-13T09:54:38;39.30;;;18.30;;
18320;SDS011;54904;54.350;18.664;2023-03-13T09:57:12;40.37;;;17.67;;
18320;SDS011;54904;54.350;18.664;2023-03-13T09:59:44;44.93;;;19.50;;
18320;SDS011;54904;54.350;18.664;2023-03-13T10:02:23;40.07;;;18.17;;
18320;SDS011;54904;54.350;18.664;2023-03-13T10:04:55;42.93;;;19.07;;
18320;SDS011;54904;54.350;18.664;2023-03-13T10:07:38;41.60;;;19.07;;
18320;SDS011;54904;54.350;18.664;2023-03-13T10:10:08;38.27;;;18.03;;
18320;SDS011;54904;54.350;18.664;2023-03-13T10:12:40;45.17;;;21.20;;
18320;SDS011;54904;54.350;18.664;2023-03-13T10:15:20;43.67;;;20.03;;
18320;SDS011;54904;54.350;18.664;2023-03-13T10:18:16;42.10;;;19.23;;
18320;SDS011;54904;54.350;18.664;2023-03-13T10:20:46;38.90;;;19.07;;
18320;SDS011;54904;54.350;18.664;2023-03-13T10:23:17;36.67;;;18.27;;
18320;SDS011;54904;54.350;18.664;2023-03-13T10:25:47;40.53;;;18.17;;
18320;SDS011;54904;54.350;18.664;2023-03-13T10:28:15;36.33;;;17.30;;
18320;SDS011;54904;54.350;18.664;2023-03-13T10:30:46;33.60;;;17.00;;
18320;SDS011;54904;54.350;18.664;2023-03-13T10:33:22;35.57;;;17.23;;
18320;SDS011;54904;54.350;18.664;2023-03-13T10:36:01;38.33;;;18.97;;
18320;SDS011;54904;54.350;18.664;2023-03-13T10:38:31;34.30;;;17.57;;
18320;SDS011;54904;54.350;18.664;2023-03-13T10:41:00;40.10;;;19.80;;
18320;SDS011;54904;54.350;18.664;2023-03-13T10:43:32;41.87;;;20.10;;
18320;SDS011;54904;54.350;18.664;2023-03-13T10:45:59;39.23;;;18.93;;
18320;SDS011;54904;54.350;18.664;2023-03-13T10:48:29;37.57;;;17.90;;
18320;SDS011;54904;54.350;18.664;2023-03-13T10:51:02;35.33;;;17.50;;
18320;SDS011;54904;54.350;18.664;2023-03-13T10:53:32;33.47;;;17.83;;
18320;SDS011;54904;54.350;18.664;2023-03-13T10:56:02;31.87;;;15.90;;
18320;SDS011;54904;54.350;18.664;2023-03-13T10:58:36;34.13;;;16.67;;
18320;SDS011;54904;54.350;18.664;2023-03-13T11:01:15;37.43;;;18.50;;
18320;SDS011;54904;54.350;18.664;2023-03-13T11:03:46;32.27;;;17.80;;
18320;SDS011;54904;54.350;18.664;2023-03-13T11:09:04;32.87;;;17.10;;
18320;SDS011;54904;54.350;18.664;2023-03-13T11:11:44;37.93;;;19.30;;
18320;SDS011;54904;54.350;18.664;2023-03-13T11:14:13;43.50;;;19.93;;
18320;SDS011;54904;54.350;18.664;2023-03-13T11:16:45;33.23;;;18.40;;
18320;SDS011;54904;54.350;18.664;2023-03-13T11:19:26;44.53;;;21.20;;
18320;SDS011;54904;54.350;18.664;2023-03-13T11:22:06;37.67;;;19.23;;
18320;SDS011;54904;54.350;18.664;2023-03-13T11:24:48;34.60;;;18.07;;
18320;SDS011;54904;54.350;18.664;2023-03-13T11:27:25;38.60;;;19.23;;
18320;SDS011;54904;54.350;18.664;2023-03-13T11:30:00;40.00;;;20.60;;
18320;SDS011;54904;54.350;18.664;2023-03-13T11:32:37;38.67;;;20.17;;
18320;SDS011;54904;54.350;18.664;2023-03-13T11:35:16;38.10;;;18.97;;
18320;SDS011;54904;54.350;18.664;2023-03-13T11:37:51;43.80;;;20.87;;
18320;SDS011;54904;54.350;18.664;2023-03-13T11:40:23;41.77;;;20.27;;
18320;SDS011;54904;54.350;18.664;2023-03-13T11:43:03;42.23;;;20.03;;
18320;SDS011;54904;54.350;18.664;2023-03-13T11:45:54;40.40;;;20.20;;
18320;SDS011;54904;54.350;18.664;2023-03-13T11:48:45;38.37;;;19.87;;
18320;SDS011;54904;54.350;18.664;2023-03-13T11:51:42;37.67;;;19.67;;
18320;SDS011;54904;54.350;18.664;2023-03-13T11:54:27;37.43;;;19.17;;
18320;SDS011;54904;54.350;18.664;2023-03-13T11:57:11;40.50;;;18.53;;
18320;SDS011;54904;54.350;18.664;2023-03-13T11:59:40;32.47;;;17.47;;
18320;SDS011;54904;54.350;18.664;2023-03-13T12:02:15;41.23;;;19.67;;
18320;SDS011;54904;54.350;18.664;2023-03-13T12:04:49;34.90;;;18.13;;
18320;SDS011;54904;54.350;18.664;2023-03-13T12:07:22;40.60;;;18.77;;
18320;SDS011;54904;54.350;18.664;2023-03-13T12:09:54;35.07;;;17.97;;
18320;SDS011;54904;54.350;18.664;2023-03-13T12:12:30;36.50;;;19.37;;
18320;SDS011;54904;54.350;18.664;2023-03-13T12:15:05;35.83;;;17.27;;
18320;SDS011;54904;54.350;18.664;2023-03-13T12:17:42;32.60;;;18.43;;
18320;SDS011;54904;54.350;18.664;2023-03-13T12:20:17;36.83;;;19.13;;
18320;SDS011;54904;54.350;18.664;2023-03-13T12:22:51;39.07;;;19.27;;
18320;SDS011;54904;54.350;18.664;2023-03-13T12:25:24;32.87;;;16.97;;
18320;SDS011;54904;54.350;18.664;2023-03-13T12:27:55;34.13;;;18.47;;
18320;SDS011;54904;54.350;18.664;2023-03-13T12:30:31;36.87;;;20.57;;
18320;SDS011;54904;54.350;18.664;2023-03-13T12:33:04;42.87;;;20.97;;
18320;SDS011;54904;54.350;18.664;2023-03-13T12:35:42;42.17;;;21.73;;
18320;SDS011;54904;54.350;18.664;2023-03-13T12:38:16;48.37;;;21.43;;
18320;SDS011;54904;54.350;18.664;2023-03-13T12:40:50;48.83;;;21.17;;
18320;SDS011;54904;54.350;18.664;2023-03-13T12:43:25;48.80;;;20.13;;
18320;SDS011;54904;54.350;18.664;2023-03-13T12:46:03;36.47;;;17.20;;
18320;SDS011;54904;54.350;18.664;2023-03-13T12:48:47;34.07;;;16.43;;
18320;SDS011;54904;54.350;18.664;2023-03-13T12:51:38;30.83;;;14.13;;
18320;SDS011;54904;54.350;18.664;2023-03-13T12:54:30;25.57;;;13.40;;
18320;SDS011;54904;54.350;18.664;2023-03-13T12:57:14;28.17;;;13.57;;
18320;SDS011;54904;54.350;18.664;2023-03-13T12:59:52;29.57;;;15.07;;
18320;SDS011;54904;54.350;18.664;2023-03-13T13:02:23;22.57;;;12.30;;
18320;SDS011;54904;54.350;18.664;2023-03-13T13:04:53;25.77;;;12.70;;
18320;SDS011;54904;54.350;18.664;2023-03-13T13:07:24;24.47;;;12.70;;
18320;SDS011;54904;54.350;18.664;2023-03-13T13:10:13;22.93;;;12.13;;
18320;SDS011;54904;54.350;18.664;2023-03-13T13:12:44;19.00;;;10.83;;
18320;SDS011;54904;54.350;18.664;2023-03-13T13:15:19;21.20;;;11.83;;
18320;SDS011;54904;54.350;18.664;2023-03-13T13:17:55;22.80;;;13.00;;
18320;SDS011;54904;54.350;18.664;2023-03-13T13:20:30;16.37;;;10.37;;
18320;SDS011;54904;54.350;18.664;2023-03-13T13:23:17;20.07;;;9.60;;
18320;SDS011;54904;54.350;18.664;2023-03-13T13:32:34;15.20;;;8.20;;
18320;SDS011;54904;54.350;18.664;2023-03-13T13:41:01;11.23;;;6.80;;
18320;SDS011;54904;54.350;18.664;2023-03-13T13:43:48;14.37;;;8.20;;
18320;SDS011;54904;54.350;18.664;2023-03-13T13:46:35;16.27;;;8.80;;
18320;SDS011;54904;54.350;18.664;2023-03-13T13:49:14;12.70;;;7.77;;
18320;SDS011;54904;54.350;18.664;2023-03-13T13:54:54;17.17;;;8.90;;
18320;SDS011;54904;54.350;18.664;2023-03-13T13:57:22;10.87;;;7.93;;
18320;SDS011;54904;54.350;18.664;2023-03-13T13:59:52;12.30;;;8.07;;
18320;SDS011;54904;54.350;18.664;2023-03-13T14:02:25;13.50;;;7.90;;
18320;SDS011;54904;54.350;18.664;2023-03-13T14:05:03;11.47;;;7.57;;
18320;SDS011;54904;54.350;18.664;2023-03-13T14:07:45;11.03;;;7.13;;
18320;SDS011;54904;54.350;18.664;2023-03-13T14:13:09;8.63;;;6.17;;
18320;SDS011;54904;54.350;18.664;2023-03-13T14:15:40;15.37;;;7.60;;
18320;SDS011;54904;54.350;18.664;2023-03-13T14:18:09;8.73;;;6.03;;
18320;SDS011;54904;54.350;18.664;2023-03-13T14:20:41;6.80;;;5.00;;
18320;SDS011;54904;54.350;18.664;2023-03-13T14:23:34;10.80;;;5.73;;
18320;SDS011;54904;54.350;18.664;2023-03-13T14:26:11;7.57;;;5.37;;
18320;SDS011;54904;54.350;18.664;2023-03-13T14:28:42;11.60;;;6.20;;
18320;SDS011;54904;54.350;18.664;2023-03-13T14:31:19;8.00;;;5.27;;
18320;SDS011;54904;54.350;18.664;2023-03-13T14:33:51;6.73;;;4.67;;
18320;SDS011;54904;54.350;18.664;2023-03-13T14:36:20;6.33;;;4.50;;
18320;SDS011;54904;54.350;18.664;2023-03-13T14:38:50;8.53;;;5.30;;
18320;SDS011;54904;54.350;18.664;2023-03-13T14:41:23;8.87;;;5.63;;
18320;SDS011;54904;54.350;18.664;2023-03-13T14:43:54;8.73;;;5.10;;
18320;SDS011;54904;54.350;18.664;2023-03-13T14:46:29;7.80;;;4.50;;
18320;SDS011;54904;54.350;18.664;2023-03-13T14:49:04;7.90;;;4.80;;
18320;SDS011;54904;54.350;18.664;2023-03-13T14:51:35;7.17;;;4.47;;
18320;SDS011;54904;54.350;18.664;2023-03-13T14:54:05;7.77;;;4.53;;
18320;SDS011;54904;54.350;18.664;2023-03-13T14:57:00;7.57;;;4.53;;
18320;SDS011;54904;54.350;18.664;2023-03-13T14:59:28;5.57;;;3.73;;
18320;SDS011;54904;54.350;18.664;2023-03-13T15:01:59;7.43;;;5.03;;
18320;SDS011;54904;54.350;18.664;2023-03-13T15:07:15;10.87;;;6.80;;
18320;SDS011;54904;54.350;18.664;2023-03-13T15:09:42;6.70;;;4.53;;
18320;SDS011;54904;54.350;18.664;2023-03-13T15:12:12;45.00;;;9.07;;